EZY38MA EGGD-EGNS
Flight info
| Callsign | EZY38MA |
|---|---|
| Flight time | N/A |
| Altitude | 23000 |
| Route | BCN P69 DIZIM N864 WAL M146 LUSOD DCT IOM |
| Aircraft | A320/M-SDE2E3FGHIJ1RWXYZ/LB1 |
Departure
| Time | 2026-05-06 21:05 |
|---|---|
| Airport | Bristol Airport (EGGD) |
Arrival
| Time | N/A |
|---|---|
| Airport | Isle of Man Airport (EGNS) |
| Time | Latitude | Longitude | Altitude | Speed | Heading |
|---|---|---|---|---|---|
| 2026-05-06 20:54 | 51.38555 | -2.71470 | 612 ft | 0 kts | 356° |
| 2026-05-06 20:58 | 51.38552 | -2.71470 | 625 ft | 3 kts | 356° |
| 2026-05-06 20:59 | 51.38521 | -2.71467 | 623 ft | 4 kts | 356° |
| 2026-05-06 20:59 | 51.38494 | -2.71464 | 625 ft | 4 kts | 356° |
| 2026-05-06 20:59 | 51.38475 | -2.71462 | 619 ft | 2 kts | 356° |
| 2026-05-06 20:59 | 51.38452 | -2.71453 | 623 ft | 4 kts | 309° |
| 2026-05-06 21:00 | 51.38445 | -2.71416 | 625 ft | 3 kts | 266° |
| 2026-05-06 21:00 | 51.38446 | -2.71384 | 620 ft | 1 kts | 266° |
| 2026-05-06 21:02 | 51.38442 | -2.71481 | 616 ft | 36 kts | 266° |
| 2026-05-06 21:03 | 51.38428 | -2.71864 | 606 ft | 34 kts | 267° |
| 2026-05-06 21:03 | 51.38420 | -2.72246 | 612 ft | 35 kts | 267° |
| 2026-05-06 21:03 | 51.38408 | -2.72641 | 625 ft | 36 kts | 267° |
| 2026-05-06 21:03 | 51.38394 | -2.73072 | 615 ft | 29 kts | 267° |
| 2026-05-06 21:04 | 51.38355 | -2.73301 | 620 ft | 24 kts | 221° |
| 2026-05-06 21:04 | 51.38246 | -2.73318 | 631 ft | 12 kts | 150° |
| 2026-05-06 21:04 | 51.38222 | -2.73224 | 634 ft | 0 kts | 93° |
| 2026-05-06 21:04 | 51.38221 | -2.73219 | 634 ft | 1 kts | 93° |
| 2026-05-06 21:05 | 51.38223 | -2.73151 | 630 ft | 29 kts | 86° |
| 2026-05-06 21:05 | 51.38257 | -2.72248 | 626 ft | 122 kts | 86° |
| 2026-05-06 21:05 | 51.38330 | -2.70570 | 880 ft | 167 kts | 85° |
| 2026-05-06 21:05 | 51.38443 | -2.68585 | 1602 ft | 187 kts | 85° |
| 2026-05-06 21:06 | 51.38587 | -2.66454 | 2423 ft | 196 kts | 83° |
| 2026-05-06 21:06 | 51.38781 | -2.64172 | 3309 ft | 208 kts | 81° |
| 2026-05-06 21:06 | 51.39065 | -2.61856 | 4294 ft | 218 kts | 76° |
| 2026-05-06 21:06 | 51.39371 | -2.59363 | 5122 ft | 240 kts | 85° |
| 2026-05-06 21:07 | 51.39432 | -2.56512 | 5792 ft | 265 kts | 82° |
| 2026-05-06 21:07 | 51.40131 | -2.53778 | 5974 ft | 270 kts | 49° |
| 2026-05-06 21:07 | 51.41661 | -2.52151 | 6005 ft | 266 kts | 14° |
| 2026-05-06 21:07 | 51.43494 | -2.52255 | 6007 ft | 263 kts | 338° |
| 2026-05-06 21:08 | 51.44908 | -2.54033 | 6007 ft | 263 kts | 304° |
| 2026-05-06 21:08 | 51.45730 | -2.56656 | 6011 ft | 264 kts | 292° |
| 2026-05-06 21:08 | 51.46439 | -2.59376 | 6008 ft | 265 kts | 292° |
| 2026-05-06 21:08 | 51.46917 | -2.61220 | 6003 ft | 265 kts | 292° |
| 2026-05-06 21:09 | 51.47622 | -2.63944 | 6012 ft | 265 kts | 292° |
| 2026-05-06 21:09 | 51.48327 | -2.66678 | 6007 ft | 265 kts | 293° |
| 2026-05-06 21:09 | 51.49156 | -2.69316 | 6010 ft | 264 kts | 301° |
| 2026-05-06 21:09 | 51.50155 | -2.71830 | 6010 ft | 265 kts | 304° |
| 2026-05-06 21:10 | 51.51212 | -2.74292 | 6013 ft | 264 kts | 305° |
| 2026-05-06 21:10 | 51.52255 | -2.76699 | 6225 ft | 260 kts | 305° |
| 2026-05-06 21:10 | 51.53289 | -2.79107 | 6866 ft | 263 kts | 304° |
| 2026-05-06 21:10 | 51.54323 | -2.81552 | 7528 ft | 266 kts | 304° |
| 2026-05-06 21:11 | 51.55376 | -2.84078 | 8178 ft | 270 kts | 304° |
| 2026-05-06 21:11 | 51.56421 | -2.86611 | 8831 ft | 274 kts | 303° |
| 2026-05-06 21:11 | 51.57481 | -2.89190 | 9516 ft | 279 kts | 303° |
| 2026-05-06 21:11 | 51.58579 | -2.91869 | 10187 ft | 286 kts | 303° |
| 2026-05-06 21:12 | 51.59711 | -2.94639 | 10811 ft | 306 kts | 303° |
| 2026-05-06 21:12 | 51.60888 | -2.97528 | 11440 ft | 314 kts | 303° |
| 2026-05-06 21:12 | 51.62145 | -3.00614 | 12109 ft | 319 kts | 303° |
| 2026-05-06 21:12 | 51.63373 | -3.03626 | 12768 ft | 322 kts | 303° |
| 2026-05-06 21:13 | 51.64612 | -3.06661 | 13437 ft | 325 kts | 303° |
| 2026-05-06 21:13 | 51.65858 | -3.09717 | 14089 ft | 328 kts | 303° |
| 2026-05-06 21:13 | 51.67111 | -3.12807 | 14698 ft | 331 kts | 302° |
| 2026-05-06 21:13 | 51.68431 | -3.16083 | 15349 ft | 334 kts | 302° |
| 2026-05-06 21:14 | 51.69682 | -3.19150 | 15959 ft | 336 kts | 306° |
| 2026-05-06 21:14 | 51.71316 | -3.21910 | 16736 ft | 343 kts | 321° |
| 2026-05-06 21:14 | 51.73371 | -3.23889 | 17644 ft | 348 kts | 336° |
| 2026-05-06 21:14 | 51.75718 | -3.24941 | 18523 ft | 354 kts | 351° |
| 2026-05-06 21:15 | 51.78232 | -3.24923 | 19314 ft | 360 kts | 6° |
| 2026-05-06 21:15 | 51.80723 | -3.24314 | 20099 ft | 364 kts | 7° |
| 2026-05-06 21:15 | 51.83240 | -3.23685 | 20882 ft | 368 kts | 7° |
| 2026-05-06 21:15 | 51.85783 | -3.23045 | 21660 ft | 372 kts | 7° |
| 2026-05-06 21:16 | 51.88355 | -3.22402 | 22420 ft | 376 kts | 7° |
| 2026-05-06 21:16 | 51.90988 | -3.21749 | 22917 ft | 379 kts | 7° |
| 2026-05-06 21:16 | 51.93592 | -3.21105 | 23027 ft | 374 kts | 7° |
| 2026-05-06 21:16 | 51.96096 | -3.20484 | 23036 ft | 354 kts | 7° |
| 2026-05-06 21:17 | 51.98472 | -3.19895 | 23033 ft | 340 kts | 7° |
| 2026-05-06 21:17 | 52.00903 | -3.19294 | 23033 ft | 336 kts | 7° |
| 2026-05-06 21:17 | 52.03162 | -3.18734 | 23019 ft | 335 kts | 7° |
| 2026-05-06 21:17 | 52.05510 | -3.18409 | 23022 ft | 334 kts | 1° |
| 2026-05-06 21:18 | 52.07830 | -3.18239 | 23022 ft | 334 kts | 1° |
| 2026-05-06 21:18 | 52.09481 | -3.18117 | 23020 ft | 334 kts | 1° |